createdAt,value
2024-01-05T00:05:20.764Z,19.04
2024-01-05T00:10:42.700Z,19.00
2024-01-05T00:16:04.934Z,18.97
2024-01-05T00:21:28.774Z,18.95
2024-01-05T00:26:50.927Z,18.92
2024-01-05T00:32:14.889Z,18.88
2024-01-05T00:37:38.084Z,18.84
2024-01-05T00:42:59.921Z,18.83
2024-01-05T00:48:21.923Z,18.81
2024-01-05T00:53:43.843Z,18.80
2024-01-05T00:59:07.223Z,18.77
2024-01-05T01:04:29.306Z,18.75
2024-01-05T01:09:51.292Z,18.73
2024-01-05T01:15:13.272Z,18.71
2024-01-05T01:20:35.225Z,18.70
2024-01-05T01:25:57.041Z,18.68
2024-01-05T01:31:19.046Z,18.66
2024-01-05T01:36:41.378Z,18.63
2024-01-05T01:42:04.574Z,18.63
2024-01-05T01:47:27.609Z,18.61
2024-01-05T01:52:50.265Z,18.59
2024-01-05T01:58:14.149Z,18.57
2024-01-05T02:03:36.442Z,18.56
2024-01-05T02:08:59.361Z,18.55
2024-01-05T02:14:21.520Z,18.53
2024-01-05T02:19:43.646Z,18.51
2024-01-05T02:25:06.425Z,18.51
2024-01-05T02:30:28.388Z,18.50
2024-01-05T02:35:51.817Z,18.47
2024-01-05T02:41:13.984Z,18.48
2024-01-05T02:46:36.790Z,18.46
2024-01-05T02:51:58.806Z,18.44
2024-01-05T02:57:20.900Z,18.41
2024-01-05T03:02:42.840Z,18.41
2024-01-05T03:08:05.259Z,18.39
2024-01-05T03:13:27.130Z,18.37
2024-01-05T03:18:49.177Z,18.37
2024-01-05T03:24:12.136Z,18.35
2024-01-05T03:29:34.195Z,18.34
2024-01-05T03:34:56.097Z,18.34
2024-01-05T03:40:17.976Z,18.32
2024-01-05T03:45:39.932Z,18.30
2024-01-05T03:51:02.106Z,18.30
2024-01-05T03:56:24.188Z,18.28
2024-01-05T04:01:47.614Z,18.27
2024-01-05T04:07:09.590Z,18.25
2024-01-05T04:12:31.690Z,18.25
2024-01-05T04:17:53.697Z,18.24
2024-01-05T04:23:15.728Z,18.23
2024-01-05T04:28:37.658Z,18.22
2024-01-05T04:33:59.926Z,18.22
2024-01-05T04:39:21.992Z,18.20
2024-01-05T04:44:43.852Z,18.20
2024-01-05T04:50:06.381Z,18.18
2024-01-05T04:55:28.405Z,18.17
2024-01-05T05:00:50.371Z,18.17
2024-01-05T05:06:12.752Z,18.16
2024-01-05T05:11:34.725Z,18.15
2024-01-05T05:16:56.580Z,18.13
2024-01-05T05:22:18.403Z,18.13
2024-01-05T05:27:40.296Z,18.14
2024-01-05T05:33:02.410Z,18.11
2024-01-05T05:38:24.506Z,18.11
2024-01-05T05:43:47.377Z,18.10
2024-01-05T05:49:09.667Z,18.09
2024-01-05T05:54:31.654Z,18.07
2024-01-05T05:59:53.753Z,18.05
2024-01-05T06:05:15.753Z,18.07
2024-01-05T06:10:37.655Z,18.06
2024-01-05T06:15:59.536Z,18.07
2024-01-05T06:21:21.391Z,18.06
2024-01-05T06:26:43.296Z,18.04
2024-01-05T06:32:05.803Z,18.05
2024-01-05T06:37:27.744Z,18.04
2024-01-05T06:42:49.822Z,18.04
2024-01-05T06:48:12.026Z,18.05
2024-01-05T06:53:34.073Z,18.03
2024-01-05T06:58:57.029Z,18.02
2024-01-05T07:04:18.916Z,18.01
2024-01-05T07:09:40.976Z,17.99
2024-01-05T07:15:03.249Z,18.00
2024-01-05T07:20:25.235Z,17.98
2024-01-05T07:25:47.258Z,17.96
2024-01-05T07:31:11.545Z,17.94
2024-01-05T07:36:33.648Z,17.93
2024-01-05T07:41:55.915Z,17.91
2024-01-05T07:47:18.238Z,17.90
2024-01-05T07:52:40.232Z,17.87
2024-01-05T07:58:02.181Z,17.87
2024-01-05T08:03:24.099Z,17.87
2024-01-05T08:08:47.207Z,17.85
2024-01-05T08:14:09.102Z,17.84
2024-01-05T08:19:31.230Z,17.83
2024-01-05T08:24:53.732Z,17.82
2024-01-05T08:30:15.702Z,17.81
2024-01-05T08:35:37.776Z,17.78
2024-01-05T08:40:59.658Z,17.76
2024-01-05T08:46:21.596Z,17.76
2024-01-05T08:51:44.949Z,17.74
2024-01-05T08:57:08.542Z,17.73
2024-01-05T09:02:30.559Z,17.72
2024-01-05T09:07:52.528Z,17.72
2024-01-05T09:13:14.446Z,17.70
2024-01-05T09:18:37.124Z,17.69
2024-01-05T09:23:59.191Z,17.69
2024-01-05T09:29:21.163Z,17.67
2024-01-05T09:34:44.541Z,17.66
2024-01-05T09:40:06.942Z,17.66
2024-01-05T09:45:29.250Z,17.65
2024-01-05T09:50:56.505Z,17.65
2024-01-05T09:56:19.056Z,17.63
2024-01-05T10:01:43.455Z,17.63
2024-01-05T10:07:05.714Z,17.61
2024-01-05T10:12:27.793Z,17.61
2024-01-05T10:17:50.715Z,17.61
2024-01-05T10:23:14.923Z,17.59
2024-01-05T10:28:39.323Z,17.58
2024-01-05T10:34:02.173Z,17.57
2024-01-05T10:39:24.258Z,17.56
2024-01-05T10:44:47.203Z,17.54
2024-01-05T10:50:10.275Z,17.56
2024-01-05T10:55:33.804Z,17.53
2024-01-05T11:00:59.276Z,17.53
2024-01-05T11:06:21.696Z,17.51
2024-01-05T11:11:50.580Z,17.51
2024-01-05T11:17:32.652Z,17.50
2024-01-05T11:22:56.219Z,17.50
2024-01-05T11:28:38.322Z,17.50
2024-01-05T11:34:00.560Z,17.49
2024-01-05T11:39:47.651Z,17.50
2024-01-05T11:45:13.005Z,17.49
2024-01-05T11:50:36.608Z,17.48
2024-01-05T11:56:04.989Z,17.50
2024-01-05T12:01:27.688Z,17.51
2024-01-05T12:06:54.031Z,17.51
2024-01-05T12:12:19.487Z,17.51
2024-01-05T12:17:42.863Z,17.50
2024-01-05T12:23:05.388Z,17.49
2024-01-05T12:28:31.460Z,17.51
2024-01-05T12:33:54.160Z,17.50
2024-01-05T12:39:16.719Z,17.47
2024-01-05T12:44:38.735Z,17.48
2024-01-05T12:50:00.840Z,17.47
2024-01-05T12:55:30.319Z,17.46
2024-01-05T13:00:53.942Z,17.45
2024-01-05T13:06:16.758Z,17.44
2024-01-05T13:11:38.801Z,17.42
2024-01-05T13:17:02.538Z,17.44
2024-01-05T13:22:24.469Z,17.43
2024-01-05T13:27:47.563Z,17.40
2024-01-05T13:33:09.550Z,17.40
2024-01-05T13:38:31.453Z,17.40
2024-01-05T13:43:53.454Z,17.38
2024-01-05T13:49:15.466Z,17.37
2024-01-05T13:54:37.446Z,17.36
2024-01-05T13:59:59.436Z,17.36
2024-01-05T14:05:21.332Z,17.35
2024-01-05T14:10:43.217Z,17.34
2024-01-05T14:16:09.911Z,17.36
2024-01-05T14:21:31.913Z,17.33
2024-01-05T14:26:53.963Z,17.32
2024-01-05T14:32:16.498Z,17.32
2024-01-05T14:37:39.709Z,17.30
2024-01-05T14:43:01.604Z,17.30
2024-01-05T14:48:25.161Z,17.31
2024-01-05T14:53:47.133Z,17.29
2024-01-05T14:59:09.184Z,17.28
2024-01-05T15:04:32.622Z,17.26
2024-01-05T15:09:55.108Z,17.24
2024-01-05T15:15:17.045Z,17.25
2024-01-05T15:20:38.951Z,17.26
2024-01-05T15:26:02.059Z,17.26
2024-01-05T15:31:24.070Z,17.23
2024-01-05T15:36:54.763Z,17.23
2024-01-05T15:42:16.681Z,17.22
2024-01-05T15:47:38.656Z,17.21
2024-01-05T15:53:00.473Z,17.24
2024-01-05T15:58:22.327Z,17.36
2024-01-05T16:03:44.271Z,17.56
2024-01-05T16:09:06.813Z,17.83
2024-01-05T16:14:28.731Z,18.13
2024-01-05T16:19:50.837Z,18.46
2024-01-05T16:25:12.691Z,18.70
2024-01-05T16:30:35.458Z,18.87
2024-01-05T16:35:58.177Z,18.99
2024-01-05T16:41:25.751Z,19.06
2024-01-05T16:46:48.216Z,19.07
2024-01-05T16:52:10.208Z,19.05
2024-01-05T16:57:32.052Z,19.01
2024-01-05T17:02:54.418Z,18.95
2024-01-05T17:08:16.409Z,18.89
2024-01-05T17:13:38.514Z,18.82
2024-01-05T17:19:01.797Z,18.74
2024-01-05T17:24:23.951Z,18.69
2024-01-05T17:29:47.167Z,18.71
2024-01-05T17:35:09.747Z,18.80
2024-01-05T17:40:31.629Z,19.04
2024-01-05T17:45:53.671Z,19.33
2024-01-05T17:51:16.125Z,19.62
2024-01-05T17:56:38.051Z,19.90
2024-01-05T18:02:00.065Z,20.12
2024-01-05T18:07:22.088Z,20.22
2024-01-05T18:12:44.681Z,20.35
2024-01-05T18:18:08.745Z,20.47
2024-01-05T18:23:30.740Z,20.56
2024-01-05T18:28:52.726Z,20.63
2024-01-05T18:34:14.911Z,20.66
2024-01-05T18:39:39.507Z,20.68
2024-01-05T18:45:01.505Z,20.67
2024-01-05T18:50:23.351Z,20.69
2024-01-05T18:55:45.287Z,20.69
2024-01-05T19:01:07.516Z,20.66
2024-01-05T19:06:29.455Z,20.65
2024-01-05T19:11:52.877Z,20.62
2024-01-05T19:17:14.848Z,20.58
2024-01-05T19:22:42.096Z,20.52
2024-01-05T19:28:04.231Z,20.49
2024-01-05T19:33:26.427Z,20.46
2024-01-05T19:38:48.526Z,20.42
2024-01-05T19:44:11.100Z,20.41
2024-01-05T19:49:33.057Z,20.42
2024-01-05T19:54:55.717Z,20.44
2024-01-05T20:00:18.262Z,20.46
2024-01-05T20:05:40.592Z,20.49
2024-01-05T20:11:02.580Z,20.49
2024-01-05T20:16:24.823Z,20.51
2024-01-05T20:21:47.410Z,20.52
2024-01-05T20:27:10.581Z,20.54
2024-01-05T20:32:32.451Z,20.54
2024-01-05T20:37:54.363Z,20.54
2024-01-05T20:43:16.310Z,20.55
2024-01-05T20:48:38.692Z,20.55
2024-01-05T20:54:02.658Z,20.57
2024-01-05T20:59:24.524Z,20.59
2024-01-05T21:04:49.377Z,20.63
2024-01-05T21:10:11.530Z,20.64
2024-01-05T21:15:33.416Z,20.60
2024-01-05T21:20:56.089Z,20.59
2024-01-05T21:26:18.943Z,20.53
2024-01-05T21:31:45.861Z,20.48
2024-01-05T21:37:08.538Z,20.39
2024-01-05T21:42:30.422Z,20.32
2024-01-05T21:47:52.295Z,20.25
2024-01-05T21:53:17.257Z,20.20
2024-01-05T21:58:39.239Z,20.15
2024-01-05T22:04:01.347Z,20.11
2024-01-05T22:09:23.639Z,20.02
2024-01-05T22:14:45.560Z,19.93
2024-01-05T22:20:07.819Z,19.83
2024-01-05T22:25:30.115Z,19.75
2024-01-05T22:30:51.986Z,19.68
2024-01-05T22:36:15.561Z,19.61
2024-01-05T22:41:37.454Z,19.53
2024-01-05T22:47:06.069Z,19.47
2024-01-05T22:52:27.943Z,19.40
2024-01-05T22:57:50.712Z,19.35
2024-01-05T23:03:12.659Z,19.31
2024-01-05T23:08:34.662Z,19.24
2024-01-05T23:13:56.500Z,19.19
2024-01-05T23:19:18.408Z,19.14
2024-01-05T23:24:40.470Z,19.11
2024-01-05T23:30:02.461Z,19.05
2024-01-05T23:35:24.515Z,19.02
2024-01-05T23:40:46.469Z,18.99
2024-01-05T23:46:08.978Z,18.96
2024-01-05T23:51:30.846Z,18.95
2024-01-05T23:56:52.738Z,18.88
